createdAt,value
2023-01-21T00:01:14.565Z,49.77
2023-01-21T00:03:42.024Z,49.13
2023-01-21T00:06:10.332Z,49.27
2023-01-21T00:08:37.416Z,51.13
2023-01-21T00:11:16.111Z,52.33
2023-01-21T00:13:44.680Z,52.43
2023-01-21T00:16:12.986Z,49.20
2023-01-21T00:18:40.667Z,56.00
2023-01-21T00:21:07.766Z,51.90
2023-01-21T00:23:34.938Z,50.57
2023-01-21T00:26:05.395Z,48.77
2023-01-21T00:28:35.206Z,49.43
2023-01-21T00:31:06.019Z,54.47
2023-01-21T00:33:34.012Z,49.23
2023-01-21T00:36:13.254Z,53.47
2023-01-21T00:38:41.032Z,48.10
2023-01-21T00:41:13.981Z,51.03
2023-01-21T00:43:42.273Z,53.40
2023-01-21T00:46:10.550Z,49.97
2023-01-21T00:48:37.990Z,50.20
2023-01-21T00:51:05.513Z,52.57
2023-01-21T00:53:36.819Z,52.07
2023-01-21T00:56:11.304Z,48.47
2023-01-21T00:58:38.902Z,52.87
2023-01-21T01:01:34.528Z,47.07
2023-01-21T01:04:01.949Z,46.83
2023-01-21T01:06:28.921Z,50.30
2023-01-21T01:08:58.544Z,50.20
2023-01-21T01:11:27.678Z,54.27
2023-01-21T01:13:55.482Z,54.40
2023-01-21T01:16:23.929Z,48.77
2023-01-21T01:18:52.662Z,52.97
2023-01-21T01:21:21.661Z,52.50
2023-01-21T01:23:52.245Z,52.40
2023-01-21T01:26:22.086Z,49.47
2023-01-21T01:28:49.352Z,53.20
2023-01-21T01:31:18.929Z,52.23
2023-01-21T01:33:47.133Z,50.63
2023-01-21T01:36:19.897Z,56.17
2023-01-21T01:38:47.251Z,51.73
2023-01-21T01:41:28.643Z,51.07
2023-01-21T01:44:01.377Z,53.73
2023-01-21T01:46:36.859Z,52.97
2023-01-21T01:49:15.633Z,54.63
2023-01-21T01:51:56.264Z,58.87
2023-01-21T01:54:36.663Z,57.23
2023-01-21T01:57:09.412Z,56.87
2023-01-21T01:59:37.839Z,61.97
2023-01-21T02:02:12.576Z,56.33
2023-01-21T02:04:56.773Z,57.30
2023-01-21T02:07:26.802Z,55.47
2023-01-21T02:09:55.085Z,58.33
2023-01-21T02:12:23.014Z,57.53
2023-01-21T02:14:51.054Z,55.33
2023-01-21T02:17:50.515Z,60.47
2023-01-21T02:20:32.795Z,56.43
2023-01-21T02:23:16.520Z,60.57
2023-01-21T02:26:07.759Z,60.50
2023-01-21T02:28:43.344Z,61.73
2023-01-21T02:31:50.782Z,60.33
2023-01-21T02:34:38.301Z,61.37
2023-01-21T02:37:31.945Z,59.37
2023-01-21T02:40:19.068Z,57.03
2023-01-21T02:42:52.872Z,61.40
2023-01-21T02:45:35.241Z,62.13
2023-01-21T02:48:18.484Z,59.90
2023-01-21T02:50:54.730Z,63.47
2023-01-21T02:53:48.316Z,65.67
2023-01-21T02:56:21.900Z,66.10
2023-01-21T02:58:59.653Z,62.27
2023-01-21T03:01:54.774Z,64.30
2023-01-21T03:05:16.900Z,62.93
2023-01-21T03:08:30.399Z,66.90
2023-01-21T03:11:18.269Z,63.97
2023-01-21T03:14:29.468Z,67.10
2023-01-21T03:17:34.212Z,70.33
2023-01-21T03:20:20.253Z,67.03
2023-01-21T03:22:49.993Z,64.90
2023-01-21T03:25:17.723Z,67.97
2023-01-21T03:27:48.511Z,72.27
2023-01-21T03:30:20.223Z,69.87
2023-01-21T03:32:52.641Z,71.60
2023-01-21T03:35:31.967Z,70.77
2023-01-21T03:38:22.252Z,79.27
2023-01-21T03:41:15.450Z,68.90
2023-01-21T03:43:42.931Z,67.77
2023-01-21T03:46:54.037Z,68.60
2023-01-21T03:49:28.513Z,72.90
2023-01-21T03:52:00.784Z,69.97
2023-01-21T03:54:28.149Z,74.20
2023-01-21T03:56:55.203Z,71.37
2023-01-21T03:59:22.388Z,74.77
2023-01-21T04:01:49.484Z,75.77
2023-01-21T04:04:16.610Z,73.77
2023-01-21T04:06:43.759Z,74.60
2023-01-21T04:09:11.886Z,70.23
2023-01-21T04:11:39.071Z,75.37
2023-01-21T04:14:06.112Z,75.73
2023-01-21T04:16:33.615Z,73.33
2023-01-21T04:19:00.804Z,75.50
2023-01-21T04:21:27.968Z,75.47
2023-01-21T04:23:55.063Z,74.57
2023-01-21T04:26:22.229Z,77.07
2023-01-21T04:28:49.347Z,77.33
2023-01-21T04:31:16.628Z,77.80
2023-01-21T04:33:43.688Z,72.73
2023-01-21T04:36:10.673Z,75.63
2023-01-21T04:38:38.007Z,70.73
2023-01-21T04:41:05.439Z,73.20
2023-01-21T04:43:32.557Z,77.57
2023-01-21T04:45:59.791Z,78.23
2023-01-21T04:48:26.914Z,77.57
2023-01-21T04:50:54.095Z,81.60
2023-01-21T04:53:21.263Z,74.43
2023-01-21T04:55:51.317Z,79.80
2023-01-21T04:58:20.260Z,79.70
2023-01-21T05:00:47.301Z,73.00
2023-01-21T05:03:15.014Z,75.67
2023-01-21T05:05:42.177Z,74.47
2023-01-21T05:08:09.393Z,80.93
2023-01-21T05:10:36.563Z,81.60
2023-01-21T05:13:04.121Z,79.10
2023-01-21T05:15:32.810Z,77.40
2023-01-21T05:18:00.709Z,74.43
2023-01-21T05:20:27.962Z,74.73
2023-01-21T05:22:55.048Z,75.10
2023-01-21T05:25:22.148Z,70.97
2023-01-21T05:27:54.688Z,82.23
2023-01-21T05:30:22.198Z,77.93
2023-01-21T05:32:54.429Z,78.97
2023-01-21T05:35:23.757Z,75.23
2023-01-21T05:37:51.394Z,76.03
2023-01-21T05:40:19.528Z,77.47
2023-01-21T05:42:47.187Z,78.03
2023-01-21T05:45:14.715Z,76.10
2023-01-21T05:47:41.813Z,84.30
2023-01-21T05:50:10.254Z,77.53
2023-01-21T05:52:38.035Z,88.40
2023-01-21T05:55:06.311Z,77.27
2023-01-21T05:57:34.211Z,77.67
2023-01-21T06:00:01.496Z,76.33
2023-01-21T06:02:28.579Z,77.10
2023-01-21T06:04:55.832Z,77.50
2023-01-21T06:07:22.969Z,78.07
2023-01-21T06:09:50.120Z,77.30
2023-01-21T06:12:17.213Z,79.90
2023-01-21T06:14:44.361Z,75.07
2023-01-21T06:17:11.462Z,80.07
2023-01-21T06:19:38.503Z,78.37
2023-01-21T06:22:05.641Z,78.07
2023-01-21T06:24:32.969Z,86.07
2023-01-21T06:27:00.067Z,77.30
2023-01-21T06:29:27.313Z,78.13
2023-01-21T06:31:56.922Z,82.10
2023-01-21T06:34:23.973Z,85.07
2023-01-21T06:36:50.966Z,77.90
2023-01-21T06:39:18.051Z,79.20
2023-01-21T06:41:45.170Z,77.00
2023-01-21T06:44:12.305Z,76.47
2023-01-21T06:46:43.319Z,79.63
2023-01-21T06:49:13.173Z,79.50
2023-01-21T06:51:40.220Z,79.40
2023-01-21T06:54:07.354Z,76.27
2023-01-21T06:56:34.785Z,85.27
2023-01-21T06:59:01.815Z,80.27
2023-01-21T07:01:31.644Z,79.30
2023-01-21T07:04:01.453Z,73.73
2023-01-21T07:06:28.529Z,78.87
2023-01-21T07:08:55.930Z,74.50
2023-01-21T07:11:23.094Z,80.97
2023-01-21T07:13:50.215Z,74.93
2023-01-21T07:16:17.428Z,79.10
2023-01-21T07:18:44.832Z,79.00
2023-01-21T07:21:11.933Z,76.27
2023-01-21T07:23:39.152Z,77.73
2023-01-21T07:26:06.780Z,77.13
2023-01-21T07:28:33.988Z,75.87
2023-01-21T07:31:03.746Z,78.10
2023-01-21T07:33:33.314Z,76.03
2023-01-21T07:36:00.314Z,82.20
2023-01-21T07:38:27.700Z,83.83
2023-01-21T07:40:55.064Z,82.53
2023-01-21T07:43:22.506Z,78.97
2023-01-21T07:45:50.063Z,82.13
2023-01-21T07:48:17.556Z,76.70
2023-01-21T07:50:44.861Z,76.87
2023-01-21T07:53:13.687Z,79.70
2023-01-21T07:55:41.133Z,85.90
2023-01-21T07:58:10.760Z,75.93
2023-01-21T08:00:38.074Z,80.60
2023-01-21T08:03:05.444Z,75.37
2023-01-21T08:05:33.325Z,80.33
2023-01-21T08:08:00.796Z,74.33
2023-01-21T08:10:27.954Z,76.43
2023-01-21T08:12:55.081Z,79.57
2023-01-21T08:15:22.236Z,78.40
2023-01-21T08:17:49.558Z,81.30
2023-01-21T08:20:17.076Z,80.17
2023-01-21T08:22:44.317Z,77.07
2023-01-21T08:25:11.781Z,80.93
2023-01-21T08:27:42.346Z,76.87
2023-01-21T08:30:10.423Z,73.80
2023-01-21T08:32:39.071Z,82.87
2023-01-21T08:35:07.243Z,76.00
2023-01-21T08:37:34.452Z,84.33
2023-01-21T08:40:01.569Z,80.47
2023-01-21T08:42:29.120Z,75.20
2023-01-21T08:44:56.428Z,81.70
2023-01-21T08:47:23.445Z,75.67
2023-01-21T08:49:50.679Z,75.23
2023-01-21T08:52:18.198Z,74.90
2023-01-21T08:54:45.315Z,76.63
2023-01-21T08:57:12.746Z,75.40
2023-01-21T08:59:40.138Z,83.47
2023-01-21T09:02:08.690Z,78.60
2023-01-21T09:04:35.784Z,78.83
2023-01-21T09:07:03.012Z,78.57
2023-01-21T09:09:30.205Z,77.90
2023-01-21T09:11:57.297Z,78.50
2023-01-21T09:14:24.446Z,76.53
2023-01-21T09:16:51.901Z,77.37
2023-01-21T09:19:19.607Z,79.60
2023-01-21T09:21:46.851Z,72.47
2023-01-21T09:24:13.913Z,79.70
2023-01-21T09:26:46.181Z,75.73
2023-01-21T09:29:13.345Z,73.80
2023-01-21T09:31:40.651Z,70.10
2023-01-21T09:34:10.731Z,74.13
2023-01-21T09:36:39.571Z,77.10
2023-01-21T09:39:07.692Z,71.50
2023-01-21T09:41:54.718Z,73.60
2023-01-21T09:44:35.585Z,74.60
2023-01-21T09:47:36.235Z,74.07
2023-01-21T09:50:18.949Z,73.47
2023-01-21T09:52:59.958Z,71.20
2023-01-21T09:55:44.054Z,70.13
2023-01-21T09:58:27.434Z,71.87
2023-01-21T10:01:03.132Z,72.20
2023-01-21T10:03:39.897Z,69.90
2023-01-21T10:06:27.884Z,67.47
2023-01-21T10:09:11.617Z,76.77
2023-01-21T10:12:22.306Z,70.43
2023-01-21T10:15:00.035Z,74.17
2023-01-21T10:17:57.102Z,70.10
2023-01-21T10:20:42.373Z,76.00
2023-01-21T10:23:50.260Z,78.07
2023-01-21T10:26:18.003Z,69.83
2023-01-21T10:28:51.991Z,63.37
2023-01-21T10:31:27.429Z,73.23
2023-01-21T10:33:55.440Z,72.83
2023-01-21T10:36:53.781Z,75.07
2023-01-21T10:39:31.458Z,72.37
2023-01-21T10:42:30.212Z,75.23
2023-01-21T10:45:33.561Z,71.43
2023-01-21T10:48:23.026Z,69.77
2023-01-21T10:51:00.911Z,75.63
2023-01-21T10:54:18.174Z,67.13
2023-01-21T10:57:14.013Z,64.10
2023-01-21T10:59:43.038Z,70.33
2023-01-21T11:02:20.937Z,67.67
2023-01-21T11:04:48.511Z,65.23
2023-01-21T11:07:21.012Z,65.13
2023-01-21T11:09:48.955Z,61.87
2023-01-21T11:12:21.575Z,61.33
2023-01-21T11:14:56.878Z,61.47
2023-01-21T11:17:40.213Z,61.13
2023-01-21T11:20:25.178Z,55.40
2023-01-21T11:22:52.439Z,61.07
2023-01-21T11:25:49.258Z,58.87
2023-01-21T11:28:30.155Z,53.23
2023-01-21T11:31:19.577Z,60.33
2023-01-21T11:33:46.958Z,61.33
2023-01-21T11:36:17.909Z,59.20
2023-01-21T11:39:00.608Z,55.40
2023-01-21T11:41:28.543Z,59.10
2023-01-21T11:44:18.732Z,63.27
2023-01-21T11:46:46.508Z,55.07
2023-01-21T11:49:24.616Z,59.80
2023-01-21T11:52:06.373Z,58.43
2023-01-21T11:54:39.949Z,60.00
2023-01-21T11:57:25.162Z,57.20
2023-01-21T11:59:54.248Z,56.47
2023-01-21T12:02:44.714Z,53.83
2023-01-21T12:05:43.249Z,57.10
2023-01-21T12:08:49.256Z,54.10
2023-01-21T12:11:21.679Z,56.40
2023-01-21T12:14:11.414Z,52.93
2023-01-21T12:17:02.792Z,60.03
2023-01-21T12:19:45.572Z,56.23
2023-01-21T12:22:51.256Z,55.97
2023-01-21T12:25:43.160Z,50.13
2023-01-21T12:28:49.778Z,57.57
2023-01-21T12:31:35.717Z,51.57
2023-01-21T12:34:13.035Z,53.40
2023-01-21T12:36:55.770Z,49.80
2023-01-21T12:39:38.279Z,50.47
2023-01-21T12:42:32.134Z,51.13
2023-01-21T12:45:12.927Z,53.57
2023-01-21T12:48:03.324Z,49.83
2023-01-21T12:50:45.691Z,48.43
2023-01-21T12:53:23.791Z,48.77
2023-01-21T12:56:27.971Z,53.03
2023-01-21T12:59:08.621Z,49.87
2023-01-21T13:01:46.446Z,44.70
2023-01-21T13:05:11.613Z,47.33
2023-01-21T13:08:29.757Z,49.17
2023-01-21T13:11:18.575Z,50.77
2023-01-21T13:14:07.606Z,49.20
2023-01-21T13:16:47.394Z,46.53
2023-01-21T13:19:15.938Z,49.67
2023-01-21T13:22:15.714Z,46.17
2023-01-21T13:25:16.588Z,45.90
2023-01-21T13:27:52.885Z,43.70
2023-01-21T13:30:54.060Z,47.80
2023-01-21T13:33:40.500Z,45.03
2023-01-21T13:36:16.433Z,43.20
2023-01-21T13:39:04.726Z,47.30
2023-01-21T13:41:56.546Z,46.93
2023-01-21T13:44:54.733Z,45.50
2023-01-21T13:47:44.171Z,46.17
2023-01-21T13:50:46.479Z,44.73
2023-01-21T13:53:34.554Z,43.23
2023-01-21T13:56:40.213Z,45.77
2023-01-21T13:59:25.575Z,49.27
2023-01-21T14:02:45.263Z,48.87
2023-01-21T14:05:25.680Z,44.03
2023-01-21T14:08:13.301Z,48.03
2023-01-21T14:10:54.145Z,43.83
2023-01-21T14:13:48.531Z,44.73
2023-01-21T14:16:30.266Z,42.43
2023-01-21T14:19:18.353Z,45.13
2023-01-21T14:22:33.319Z,44.13
2023-01-21T14:25:30.639Z,41.13
2023-01-21T14:28:21.085Z,40.20
2023-01-21T14:31:13.811Z,41.17
2023-01-21T14:34:06.301Z,33.03
2023-01-21T14:36:44.089Z,28.10
2023-01-21T14:39:34.275Z,21.90
2023-01-21T14:42:04.701Z,19.07
2023-01-21T14:44:45.474Z,19.17
2023-01-21T14:47:31.976Z,20.87
2023-01-21T14:50:00.243Z,21.70
2023-01-21T14:52:37.780Z,19.80
2023-01-21T14:55:28.387Z,20.77
2023-01-21T14:57:57.371Z,19.60
2023-01-21T15:00:35.950Z,19.33
2023-01-21T15:03:14.636Z,21.80
2023-01-21T15:05:48.734Z,19.20
2023-01-21T15:08:29.839Z,18.97
2023-01-21T15:11:08.286Z,18.90
2023-01-21T15:13:40.671Z,19.13
2023-01-21T15:16:36.514Z,19.23
2023-01-21T15:19:09.729Z,20.67
2023-01-21T15:21:42.897Z,19.20
2023-01-21T15:24:25.876Z,19.30
2023-01-21T15:27:25.856Z,22.23
2023-01-21T15:30:01.987Z,21.87
2023-01-21T15:32:44.607Z,22.73
2023-01-21T15:35:30.525Z,25.27
2023-01-21T15:38:26.970Z,24.37
2023-01-21T15:41:08.818Z,26.50
2023-01-21T15:43:54.902Z,24.73
2023-01-21T15:46:46.638Z,23.93
2023-01-21T15:49:50.264Z,28.90
2023-01-21T15:52:47.892Z,25.60
2023-01-21T15:55:56.023Z,28.43
2023-01-21T15:58:44.667Z,27.50
2023-01-21T16:01:34.027Z,26.13
2023-01-21T16:04:29.235Z,26.97
2023-01-21T16:07:30.703Z,27.73
2023-01-21T16:10:15.653Z,30.53
2023-01-21T16:13:09.233Z,30.30
2023-01-21T16:16:07.579Z,29.80
2023-01-21T16:18:52.897Z,30.47
2023-01-21T16:21:32.005Z,30.03
2023-01-21T16:24:07.576Z,28.93
2023-01-21T16:26:34.779Z,32.63
2023-01-21T16:29:02.041Z,28.83
2023-01-21T16:31:29.319Z,31.23
2023-01-21T16:33:56.627Z,32.03
2023-01-21T16:36:23.801Z,34.37
2023-01-21T16:38:51.021Z,34.87
2023-01-21T16:41:24.147Z,33.13
2023-01-21T16:44:02.006Z,30.23
2023-01-21T16:46:37.455Z,33.63
2023-01-21T16:49:15.017Z,34.27
2023-01-21T16:51:56.817Z,34.97
2023-01-21T16:54:31.680Z,34.43
2023-01-21T16:57:29.788Z,34.23
2023-01-21T16:59:58.190Z,35.60
2023-01-21T17:02:33.281Z,36.57
2023-01-21T17:05:05.167Z,36.63
2023-01-21T17:07:45.587Z,37.73
2023-01-21T17:10:15.872Z,34.57
2023-01-21T17:12:55.931Z,37.60
2023-01-21T17:15:40.964Z,40.23
2023-01-21T17:18:24.305Z,38.03
2023-01-21T17:21:13.753Z,36.47
2023-01-21T17:23:54.023Z,36.90
2023-01-21T17:26:38.657Z,43.33
2023-01-21T17:29:18.267Z,64.37
2023-01-21T17:31:53.894Z,41.83
2023-01-21T17:34:31.576Z,38.53
2023-01-21T17:36:59.930Z,36.73
2023-01-21T17:39:46.076Z,34.33
2023-01-21T17:42:31.700Z,35.53
2023-01-21T17:45:04.883Z,38.87
2023-01-21T17:47:45.837Z,44.73
2023-01-21T17:50:29.292Z,32.73
2023-01-21T17:52:57.399Z,36.00
2023-01-21T17:55:40.801Z,34.57
2023-01-21T17:58:55.757Z,35.33
2023-01-21T18:01:23.314Z,31.63
2023-01-21T18:03:50.460Z,34.33
2023-01-21T18:06:28.340Z,35.57
2023-01-21T18:08:58.446Z,34.47
2023-01-21T18:11:25.588Z,34.87
2023-01-21T18:13:52.887Z,38.23
2023-01-21T18:16:20.176Z,38.27
2023-01-21T18:18:49.549Z,41.37
2023-01-21T18:21:21.560Z,38.53
2023-01-21T18:23:49.613Z,42.23
2023-01-21T18:26:32.119Z,39.53
2023-01-21T18:28:59.147Z,39.03
2023-01-21T18:31:26.863Z,39.87
2023-01-21T18:34:00.031Z,43.70
2023-01-21T18:36:27.166Z,45.90
2023-01-21T18:38:54.185Z,44.97
2023-01-21T18:41:21.653Z,46.37
2023-01-21T18:43:49.050Z,49.63
2023-01-21T18:46:16.482Z,44.07
2023-01-21T18:48:43.666Z,47.60
2023-01-21T18:51:12.956Z,50.77
2023-01-21T18:53:40.051Z,53.87
2023-01-21T18:56:13.834Z,51.87
2023-01-21T18:58:41.196Z,53.13
2023-01-21T19:01:21.881Z,52.17
2023-01-21T19:03:52.691Z,51.73
2023-01-21T19:06:19.897Z,51.03
2023-01-21T19:08:48.709Z,58.53
2023-01-21T19:11:16.468Z,52.87
2023-01-21T19:13:43.492Z,52.93
2023-01-21T19:16:23.216Z,57.13
2023-01-21T19:18:50.491Z,55.97
2023-01-21T19:21:17.723Z,54.97
2023-01-21T19:23:44.922Z,59.93
2023-01-21T19:26:14.322Z,56.57
2023-01-21T19:28:41.669Z,53.63
2023-01-21T19:31:09.015Z,53.47
2023-01-21T19:33:36.271Z,54.50
2023-01-21T19:36:12.369Z,50.40
2023-01-21T19:38:39.574Z,53.27
2023-01-21T19:41:06.646Z,51.90
2023-01-21T19:43:33.880Z,52.63
2023-01-21T19:46:01.242Z,54.97
2023-01-21T19:48:29.120Z,58.30
2023-01-21T19:50:56.458Z,57.73
2023-01-21T19:53:23.712Z,52.53
2023-01-21T19:55:51.580Z,56.30
2023-01-21T19:58:21.304Z,56.53
2023-01-21T20:00:52.786Z,66.13
2023-01-21T20:03:25.491Z,63.53
2023-01-21T20:05:57.991Z,59.93
2023-01-21T20:08:28.965Z,59.20
2023-01-21T20:11:02.499Z,56.23
2023-01-21T20:13:32.263Z,53.17
2023-01-21T20:16:03.686Z,61.53
2023-01-21T20:18:33.203Z,63.43
2023-01-21T20:21:00.523Z,61.00
2023-01-21T20:23:27.838Z,63.13
2023-01-21T20:25:59.495Z,55.23
2023-01-21T20:28:36.319Z,60.67
2023-01-21T20:31:06.567Z,64.63
2023-01-21T20:33:36.086Z,58.63
2023-01-21T20:36:06.697Z,60.93
2023-01-21T20:38:37.468Z,63.50
2023-01-21T20:41:06.019Z,58.77
2023-01-21T20:43:33.821Z,59.80
2023-01-21T20:46:05.607Z,59.03
2023-01-21T20:48:37.032Z,57.73
2023-01-21T20:51:05.424Z,56.03
2023-01-21T20:53:35.867Z,52.37
2023-01-21T20:56:33.010Z,58.50
2023-01-21T20:59:00.460Z,55.33
2023-01-21T21:01:29.104Z,58.50
2023-01-21T21:03:56.339Z,54.83
2023-01-21T21:06:29.351Z,57.23
2023-01-21T21:08:56.801Z,55.80
2023-01-21T21:11:27.024Z,61.73
2023-01-21T21:13:54.137Z,58.60
2023-01-21T21:16:26.398Z,62.57
2023-01-21T21:18:53.632Z,53.60
2023-01-21T21:21:23.577Z,52.80
2023-01-21T21:23:52.516Z,60.00
2023-01-21T21:26:26.878Z,57.57
2023-01-21T21:28:57.875Z,50.97
2023-01-21T21:31:34.436Z,63.80
2023-01-21T21:34:01.568Z,63.87
2023-01-21T21:36:29.137Z,54.93
2023-01-21T21:38:56.912Z,55.53
2023-01-21T21:41:44.491Z,63.37
2023-01-21T21:44:12.754Z,63.33
2023-01-21T21:46:58.674Z,54.33
2023-01-21T21:49:26.485Z,59.73
2023-01-21T21:51:54.001Z,54.00
2023-01-21T21:54:21.441Z,56.90
2023-01-21T21:56:48.857Z,52.93
2023-01-21T21:59:16.438Z,50.63
2023-01-21T22:01:44.611Z,46.03
2023-01-21T22:04:12.286Z,54.33
2023-01-21T22:06:39.672Z,47.40
2023-01-21T22:09:07.847Z,51.07
2023-01-21T22:11:35.588Z,46.93
2023-01-21T22:14:04.479Z,48.63
2023-01-21T22:16:33.329Z,44.63
2023-01-21T22:19:01.854Z,48.77
2023-01-21T22:21:33.141Z,47.87
2023-01-21T22:24:07.098Z,50.57
2023-01-21T22:26:37.918Z,45.43
2023-01-21T22:29:06.065Z,50.53
2023-01-21T22:31:34.078Z,43.93
2023-01-21T22:34:02.070Z,47.07
2023-01-21T22:36:31.578Z,51.63
2023-01-21T22:38:59.341Z,48.13
2023-01-21T22:41:27.555Z,49.73
2023-01-21T22:43:58.824Z,49.07
2023-01-21T22:46:33.090Z,48.43
2023-01-21T22:49:00.907Z,48.20
2023-01-21T22:51:40.133Z,48.93
2023-01-21T22:54:10.557Z,50.93
2023-01-21T22:59:24.525Z,43.50
2023-01-21T23:01:52.558Z,49.03
2023-01-21T23:04:22.965Z,44.70
2023-01-21T23:07:09.697Z,49.47
2023-01-21T23:09:45.973Z,49.20
2023-01-21T23:12:19.223Z,52.00
2023-01-21T23:15:06.085Z,50.43
2023-01-21T23:17:38.843Z,54.33
2023-01-21T23:20:09.700Z,52.57
2023-01-21T23:22:40.651Z,51.13
2023-01-21T23:25:09.371Z,53.93
2023-01-21T23:27:37.505Z,53.43
2023-01-21T23:30:50.319Z,54.53
2023-01-21T23:33:33.248Z,52.57
2023-01-21T23:36:06.937Z,53.33
2023-01-21T23:38:37.657Z,49.77
2023-01-21T23:41:30.336Z,48.73
2023-01-21T23:44:03.018Z,53.50
2023-01-21T23:46:31.093Z,46.37
2023-01-21T23:48:59.500Z,48.87
2023-01-21T23:51:30.124Z,48.53
2023-01-21T23:53:57.505Z,47.70
2023-01-21T23:56:29.273Z,48.40
2023-01-21T23:58:57.311Z,41.03
